Bo Relampago, Puerto Rico
Current Conditions -  °F | °C
As of 12:53 AM on Saturday 20 Dec 2014 (Local Time) from TJNR Reporting Station
Few Clouds Few Clouds  
Wind Chill: 77°   Ceiling: Unl
Heat Index: 79°   Visibility: 10mi
Dew Point: 69°   Wind: 7mph
Humidity: 76%   Direction: 60°ENE
Pressure: 30.02"   Gusts: NA
Location:  18.2147°N, 65.7358°W
Report Text: TJNR 200453Z AUTO 06006KT 10SM FEW032 25/21 A3002 RMK AO2 SLP164 T02500206
Loading
Personal Weather Stations






























Interactive Weather Map New forecast layout! Learn more

10-Day Weather Forecast

Advertisements
Track Severe Weather on mobile